Time;durP1;ratioP1;P1;durP2;ratioP2;P2;SDS_P1;SDS_P2;PMS_P1;PMS_P2;Temp;Humidity;BMP_temperature;BMP_pressure;BME280_temperature;BME280_humidity;BME280_pressure;Samples;Min_cycle;Max_cycle;Signal;HPM_P1;HPM_P2
2021/06/19 00:00:34;;;;;;;21.17;13.35;;;;;;;20.08;87.95;101370.06;5021891;28;20089;-68
2021/06/19 00:03:02;;;;;;;16.52;10.07;;;;;;;20.10;85.09;101372.69;5021013;28;20112;-69
2021/06/19 00:05:30;;;;;;;17.58;9.55;;;;;;;20.12;84.89;101378.88;5017843;28;20069;-68
2021/06/19 00:07:59;;;;;;;16.50;9.30;;;;;;;20.19;83.67;101382.91;5014946;28;20060;-68
2021/06/19 00:10:28;;;;;;;15.50;8.60;;;;;;;20.22;83.61;101382.72;5015990;28;20468;-69
2021/06/19 00:12:57;;;;;;;13.40;8.68;;;;;;;20.25;83.51;101381.66;5015860;28;20066;-68
2021/06/19 00:15:25;;;;;;;15.70;9.43;;;;;;;20.26;83.75;101386.09;5017711;28;20748;-69
2021/06/19 00:17:54;;;;;;;14.73;9.50;;;;;;;20.27;84.04;101388.72;5010976;28;20064;-68
2021/06/19 00:20:24;;;;;;;16.70;9.70;;;;;;;20.25;84.01;101381.66;5017344;28;20065;-68
2021/06/19 00:22:53;;;;;;;15.55;10.05;;;;;;;20.25;84.08;101389.81;5010482;28;20061;-68
2021/06/19 00:25:23;;;;;;;17.10;10.45;;;;;;;20.24;84.58;101390.75;5017471;28;20187;-68
2021/06/19 00:27:51;;;;;;;19.65;10.50;;;;;;;20.22;84.09;101382.72;5011984;28;20065;-68
2021/06/19 00:30:22;;;;;;;20.42;10.30;;;;;;;20.22;83.64;101388.13;5017956;28;20581;-68
2021/06/19 00:32:52;;;;;;;16.00;10.20;;;;;;;20.20;84.22;101389.22;5015370;28;20772;-68
2021/06/19 00:35:21;;;;;;;17.20;11.13;;;;;;;20.21;84.57;101380.09;5013312;28;20060;-68
2021/06/19 00:37:49;;;;;;;20.15;12.18;;;;;;;20.17;84.55;101384.84;5016265;28;20068;-68
2021/06/19 00:40:20;;;;;;;21.88;13.35;;;;;;;20.14;84.40;101383.22;5017221;28;20057;-68
2021/06/19 00:42:56;;;;;;;20.30;12.80;;;;;;;20.11;85.06;101393.41;5014313;28;20224;-68
2021/06/19 00:45:26;;;;;;;19.63;13.18;;;;;;;20.12;84.99;101389.69;5018192;28;20065;-67
2021/06/19 00:47:54;;;;;;;31.38;16.10;;;;;;;20.06;85.14;101388.25;5018142;28;20065;-67
2021/06/19 00:50:24;;;;;;;24.25;15.10;;;;;;;20.09;84.64;101388.06;5013058;28;20065;-68
2021/06/19 00:52:52;;;;;;;26.95;15.55;;;;;;;20.01;84.65;101389.53;5016608;28;20456;-67
2021/06/19 00:55:21;;;;;;;33.95;19.55;;;;;;;19.82;85.85;101401.50;5013289;28;20061;-68
2021/06/19 00:57:50;;;;;;;34.72;18.85;;;;;;;19.68;86.57;101406.84;5012571;28;20062;-68
2021/06/19 01:00:19;;;;;;;38.85;21.88;;;;;;;19.53;87.16;101411.38;5015576;28;20164;-68
2021/06/19 01:02:49;;;;;;;37.95;22.77;;;;;;;19.31;87.09;101414.53;5017446;28;20464;-68
2021/06/19 01:05:17;;;;;;;45.65;24.63;;;;;;;19.15;87.57;101423.50;5018628;28;20084;-67
2021/06/19 01:07:45;;;;;;;45.40;25.80;;;;;;;19.07;87.64;101417.72;5027605;28;20531;-67
2021/06/19 01:10:15;;;;;;;39.22;23.20;;;;;;;19.07;88.14;101428.53;5014598;28;20054;-68
2021/06/19 01:12:45;;;;;;;47.53;23.33;;;;;;;19.06;88.21;101429.47;5018511;28;20057;-67
2021/06/19 01:15:15;;;;;;;44.25;24.55;;;;;;;18.94;87.97;101425.66;5013959;28;20061;-68
2021/06/19 01:17:43;;;;;;;44.72;25.52;;;;;;;18.82;87.72;101424.53;5017006;28;20436;-68
2021/06/19 01:20:15;;;;;;;45.90;24.77;;;;;;;18.77;87.81;101425.72;5012523;28;20111;-68
2021/06/19 01:22:45;;;;;;;49.67;24.60;;;;;;;18.72;87.56;101417.00;5018632;28;20387;-68
2021/06/19 01:25:17;;;;;;;51.55;25.55;;;;;;;18.67;87.73;101419.97;5009999;28;20444;-68
2021/06/19 01:27:48;;;;;;;49.97;25.52;;;;;;;18.64;87.91;101422.84;5015455;28;20057;-67
2021/06/19 01:30:17;;;;;;;57.85;27.13;;;;;;;18.55;87.86;101418.84;5017070;28;20053;-68
2021/06/19 01:32:45;;;;;;;54.58;27.52;;;;;;;18.48;88.55;101418.31;5015093;28;20085;-67
2021/06/19 01:35:14;;;;;;;56.83;29.52;;;;;;;18.48;88.29;101414.75;5026980;28;20107;-67
2021/06/19 01:37:45;;;;;;;55.22;27.88;;;;;;;18.42;88.73;101424.06;5016739;28;20115;-67
2021/06/19 01:40:16;;;;;;;60.85;28.85;;;;;;;18.50;88.83;101420.06;5013279;28;20303;-67
2021/06/19 01:42:47;;;;;;;60.93;31.43;;;;;;;18.45;88.70;101421.16;5019630;28;20297;-67
2021/06/19 01:45:18;;;;;;;67.72;34.03;;;;;;;18.34;88.71;101431.72;5009770;28;20322;-68
2021/06/19 01:47:46;;;;;;;69.20;34.05;;;;;;;18.28;89.18;101432.91;5014381;28;20068;-67
2021/06/19 01:50:17;;;;;;;64.40;31.40;;;;;;;18.30;88.79;101440.94;5013496;28;20065;-68
2021/06/19 01:52:46;;;;;;;64.72;33.80;;;;;;;18.34;89.05;101437.13;5014075;28;20065;-68
2021/06/19 01:55:15;;;;;;;75.18;35.05;;;;;;;18.26;88.65;101436.66;5015593;28;20065;-68
2021/06/19 01:57:44;;;;;;;66.50;33.50;;;;;;;18.33;88.50;101439.91;5014411;28;20062;-68
2021/06/19 02:00:13;;;;;;;68.15;30.23;;;;;;;18.29;88.04;101441.91;5013519;28;20054;-68
2021/06/19 02:02:42;;;;;;;67.65;31.55;;;;;;;18.27;87.87;101444.69;5022937;28;20119;-67
2021/06/19 02:05:12;;;;;;;69.70;31.58;;;;;;;18.35;88.20;101444.25;5015111;28;20061;-67
2021/06/19 02:07:46;;;;;;;64.25;31.38;;;;;;;18.29;88.91;101442.78;5013418;28;20061;-68
2021/06/19 02:10:16;;;;;;;68.63;33.37;;;;;;;18.25;89.50;101437.63;5015347;28;20062;-68
2021/06/19 02:12:45;;;;;;;76.50;35.55;;;;;;;18.18;90.15;101453.28;5013300;28;20299;-67
2021/06/19 02:15:13;;;;;;;86.18;40.00;;;;;;;18.09;91.13;101449.25;5017688;28;20111;-67
2021/06/19 02:17:42;;;;;;;82.07;38.47;;;;;;;17.92;92.87;101458.25;5010950;28;20057;-67
2021/06/19 02:20:12;;;;;;;82.10;37.65;;;;;;;17.82;92.18;101467.75;5016431;28;20069;-67
2021/06/19 02:22:41;;;;;;;78.55;38.67;;;;;;;17.66;92.43;101459.59;5016413;28;20057;-68
2021/06/19 02:25:11;;;;;;;82.65;39.55;;;;;;;17.77;93.09;101472.53;5015437;28;20377;-68
2021/06/19 02:27:49;;;;;;;88.38;39.35;;;;;;;17.77;92.65;101458.16;5019791;28;20068;-68
2021/06/19 02:30:17;;;;;;;91.72;41.28;;;;;;;17.55;92.95;101454.78;5018423;28;20052;-67
2021/06/19 02:32:46;;;;;;;88.03;41.53;;;;;;;17.56;92.53;101452.94;5017249;28;20147;-68
2021/06/19 02:35:15;;;;;;;99.07;42.95;;;;;;;17.60;93.66;101456.34;5019852;28;20510;-67
2021/06/19 02:37:43;;;;;;;93.75;41.10;;;;;;;17.58;93.45;101460.97;5015464;28;20053;-68
2021/06/19 02:40:11;;;;;;;90.20;39.80;;;;;;;17.56;93.54;101471.84;5019628;28;20448;-69
2021/06/19 02:42:41;;;;;;;89.07;39.05;;;;;;;17.31;93.79;101477.59;5018637;28;20501;-67
2021/06/19 02:45:12;;;;;;;99.35;44.03;;;;;;;17.30;93.73;101476.72;5019092;28;20054;-67
2021/06/19 02:47:40;;;;;;;91.18;43.75;;;;;;;17.37;93.60;101482.69;5021131;28;20291;-68
2021/06/19 02:50:11;;;;;;;98.80;44.17;;;;;;;17.32;94.05;101480.22;5015210;28;20116;-68
2021/06/19 02:52:42;;;;;;;90.47;43.53;;;;;;;17.35;94.13;101480.06;4994819;28;20093;-67
2021/06/19 02:55:11;;;;;;;102.22;44.38;;;;;;;17.26;93.68;101485.03;5000287;28;20364;-68
2021/06/19 02:57:39;;;;;;;96.47;42.72;;;;;;;17.22;94.05;101478.94;4995455;28;20065;-68
2021/06/19 03:00:11;;;;;;;80.72;38.92;;;;;;;17.14;93.93;101475.75;4998840;28;20066;-67
2021/06/19 03:02:39;;;;;;;78.88;37.03;;;;;;;17.09;93.97;101483.19;4995766;28;20070;-67
2021/06/19 03:05:09;;;;;;;81.03;38.05;;;;;;;17.11;93.99;101473.19;5000222;28;20077;-67
2021/06/19 03:07:38;;;;;;;80.82;36.42;;;;;;;17.10;93.20;101476.84;4999800;28;20085;-69
2021/06/19 03:10:07;;;;;;;78.18;35.17;;;;;;;17.15;94.16;101472.97;4994628;28;20106;-68
2021/06/19 03:12:35;;;;;;;72.32;36.97;;;;;;;17.17;93.43;101484.53;4999545;28;20058;-68
2021/06/19 03:15:03;;;;;;;82.63;36.05;;;;;;;17.10;93.10;101480.41;4994470;28;20060;-67
2021/06/19 03:17:32;;;;;;;83.60;37.83;;;;;;;17.08;93.71;101484.16;4996674;28;20066;-68
2021/06/19 03:20:00;;;;;;;87.13;40.55;;;;;;;17.06;93.74;101488.72;4999135;28;20058;-67
2021/06/19 03:22:28;;;;;;;89.05;38.75;;;;;;;17.16;93.85;101484.63;5012009;28;20065;-68
2021/06/19 03:24:56;;;;;;;87.90;38.47;;;;;;;17.26;93.67;101485.91;4995494;28;20462;-70
2021/06/19 03:27:24;;;;;;;84.47;37.63;;;;;;;17.17;92.81;101475.59;4998075;28;20058;-69
2021/06/19 03:29:52;;;;;;;81.22;37.03;;;;;;;17.21;93.21;101487.97;4994951;28;20072;-69
2021/06/19 03:32:20;;;;;;;83.47;35.22;;;;;;;17.22;92.79;101488.84;4998014;28;20062;-69
2021/06/19 03:34:49;;;;;;;86.57;38.28;;;;;;;17.15;92.91;101494.53;5006682;28;20082;-69
2021/06/19 03:37:16;;;;;;;76.43;36.45;;;;;;;17.17;92.75;101497.16;4997463;28;20064;-69
2021/06/19 03:39:45;;;;;;;77.15;33.33;;;;;;;17.21;92.85;101497.88;4999233;28;20286;-69
2021/06/19 03:42:13;;;;;;;84.53;37.55;;;;;;;17.14;92.55;101497.31;4997086;28;20069;-70
2021/06/19 03:44:41;;;;;;;81.22;35.95;;;;;;;17.16;92.97;101490.91;4996267;28;20072;-69
2021/06/19 03:47:09;;;;;;;84.43;37.53;;;;;;;17.06;92.53;101491.41;4997108;28;20142;-69
2021/06/19 03:49:37;;;;;;;86.57;38.53;;;;;;;17.11;93.29;101501.03;4992129;28;20334;-70
2021/06/19 03:52:06;;;;;;;78.25;36.35;;;;;;;17.12;92.81;101500.06;5000866;28;20064;-69
2021/06/19 03:54:37;;;;;;;76.00;35.03;;;;;;;17.01;92.93;101499.75;4994303;28;20097;-69
2021/06/19 03:57:06;;;;;;;83.85;37.50;;;;;;;17.01;93.25;101497.06;4992061;28;20433;-70
2021/06/19 03:59:34;;;;;;;85.20;35.88;;;;;;;17.02;92.80;101497.91;5000095;28;20267;-69
2021/06/19 04:02:02;;;;;;;79.53;36.33;;;;;;;17.05;93.29;101492.38;4994070;28;20397;-69
2021/06/19 04:04:30;;;;;;;75.03;32.67;;;;;;;17.06;93.07;101496.81;4999247;28;20066;-70
2021/06/19 04:06:57;;;;;;;79.65;34.00;;;;;;;17.07;92.83;101510.22;4996321;28;20065;-69
2021/06/19 04:09:27;;;;;;;78.07;33.15;;;;;;;17.10;92.69;101512.75;5014311;28;20073;-70
2021/06/19 04:11:55;;;;;;;63.30;28.65;;;;;;;17.06;92.82;101508.47;5000491;28;20169;-69
2021/06/19 04:14:22;;;;;;;72.80;31.90;;;;;;;17.10;92.79;101518.16;4997690;28;20092;-69
2021/06/19 04:16:50;;;;;;;66.50;31.08;;;;;;;17.00;93.42;101519.56;4997028;28;20447;-69
2021/06/19 04:19:18;;;;;;;71.45;31.08;;;;;;;17.06;93.48;101521.06;4996994;28;20112;-69
2021/06/19 04:21:46;;;;;;;71.00;31.10;;;;;;;17.07;93.91;101520.13;4995461;28;20065;-70
2021/06/19 04:24:14;;;;;;;73.95;33.17;;;;;;;17.02;94.05;101525.72;5002228;28;20064;-70
2021/06/19 04:26:43;;;;;;;69.00;31.00;;;;;;;16.85;94.54;101526.53;4997651;28;20069;-70
2021/06/19 04:29:11;;;;;;;69.57;31.92;;;;;;;16.90;94.92;101516.41;4996436;28;20093;-70
2021/06/19 04:31:38;;;;;;;75.22;32.25;;;;;;;17.01;94.87;101520.41;4992942;28;20064;-71
2021/06/19 04:34:06;;;;;;;76.25;30.88;;;;;;;16.96;94.87;101518.81;4997482;28;20125;-70
2021/06/19 04:36:34;;;;;;;66.07;26.50;;;;;;;17.08;94.34;101528.16;4997496;28;20072;-70
2021/06/19 04:39:02;;;;;;;71.03;29.90;;;;;;;17.05;94.28;101530.97;4998332;28;20062;-69
2021/06/19 04:41:32;;;;;;;79.47;32.67;;;;;;;17.12;94.09;101524.34;4994802;28;20677;-70
2021/06/19 04:44:17;;;;;;;74.22;31.80;;;;;;;17.14;93.94;101527.81;4995962;28;20061;-70
2021/06/19 04:46:46;;;;;;;66.65;29.02;;;;;;;17.15;93.98;101544.91;4993413;28;20452;-69
2021/06/19 04:49:14;;;;;;;74.85;31.48;;;;;;;17.22;93.67;101548.19;4996027;28;20232;-71
2021/06/19 04:51:42;;;;;;;69.85;30.98;;;;;;;17.27;94.25;101544.31;4999378;28;20061;-71
2021/06/19 04:54:10;;;;;;;66.88;30.33;;;;;;;17.22;94.09;101559.81;4995090;28;20436;-69
2021/06/19 04:56:38;;;;;;;69.15;30.80;;;;;;;17.28;94.70;101554.16;4993669;28;20111;-71
2021/06/19 04:59:07;;;;;;;67.10;28.63;;;;;;;17.32;94.57;101558.44;4995835;28;20069;-70
2021/06/19 05:01:35;;;;;;;66.85;29.48;;;;;;;17.31;94.26;101566.59;4994018;28;20054;-70
2021/06/19 05:04:03;;;;;;;60.90;27.13;;;;;;;17.35;94.24;101563.69;4994809;28;20076;-71
2021/06/19 05:06:30;;;;;;;59.55;27.40;;;;;;;17.29;94.00;101563.09;4996854;28;20058;-70
2021/06/19 05:08:58;;;;;;;56.78;27.50;;;;;;;17.37;93.72;101566.31;4997190;28;20053;-70
2021/06/19 05:11:26;;;;;;;58.97;28.05;;;;;;;17.38;93.99;101577.97;4995412;28;20335;-70
2021/06/19 05:13:54;;;;;;;53.67;25.10;;;;;;;17.44;94.42;101586.63;4994502;28;20097;-70
2021/06/19 05:16:23;;;;;;;50.15;23.23;;;;;;;17.35;93.82;101584.41;4996131;28;20245;-69
2021/06/19 05:18:51;;;;;;;44.67;21.55;;;;;;;17.35;93.05;101590.66;4997169;28;20064;-71
2021/06/19 05:21:18;;;;;;;47.10;22.48;;;;;;;17.34;93.28;101594.28;4992772;28;20058;-70
2021/06/19 05:23:46;;;;;;;44.08;24.13;;;;;;;17.24;94.02;101587.59;4996567;28;20345;-70
2021/06/19 05:26:14;;;;;;;55.38;24.77;;;;;;;17.29;93.60;101585.53;4993010;28;20057;-69
2021/06/19 05:28:42;;;;;;;51.22;26.70;;;;;;;17.37;94.25;101593.28;4997522;28;20070;-70
2021/06/19 05:31:09;;;;;;;50.00;24.15;;;;;;;17.32;93.21;101592.63;5000447;28;20069;-70
2021/06/19 05:33:39;;;;;;;47.53;22.35;;;;;;;17.38;93.35;101595.00;4993253;28;20057;-70
2021/06/19 05:36:07;;;;;;;41.22;21.13;;;;;;;17.44;93.13;101602.81;4999921;28;20068;-71
2021/06/19 05:38:35;;;;;;;43.72;20.88;;;;;;;17.47;92.37;101605.38;5000410;28;20519;-70
2021/06/19 05:41:03;;;;;;;34.55;19.25;;;;;;;17.35;90.56;101604.13;5001514;28;20124;-71
2021/06/19 05:43:30;;;;;;;39.25;19.58;;;;;;;17.38;90.50;101613.03;5002742;28;20070;-70
2021/06/19 05:46:01;;;;;;;37.50;20.60;;;;;;;17.42;89.80;101611.91;5000448;28;20077;-70
2021/06/19 05:48:33;;;;;;;33.03;19.35;;;;;;;17.37;88.92;101609.47;5000588;28;20064;-71
2021/06/19 05:51:08;;;;;;;36.55;18.75;;;;;;;17.46;88.56;101614.41;5002133;28;20475;-72
2021/06/19 05:53:36;;;;;;;33.58;18.88;;;;;;;17.41;88.78;101610.19;4999266;28;20096;-72
2021/06/19 05:56:04;;;;;;;34.97;19.10;;;;;;;17.43;88.63;101619.94;4998650;28;20066;-72
2021/06/19 05:58:32;;;;;;;38.08;19.95;;;;;;;17.41;88.17;101604.78;4999900;28;20066;-72
2021/06/19 06:01:00;;;;;;;33.58;18.90;;;;;;;17.38;88.21;101619.28;4997850;28;21143;-71
2021/06/19 06:03:28;;;;;;;36.00;19.35;;;;;;;17.44;88.27;101627.09;5000246;28;20058;-72
2021/06/19 06:05:55;;;;;;;34.80;19.35;;;;;;;17.43;87.75;101622.63;4997415;28;20399;-72
2021/06/19 06:08:25;;;;;;;35.30;19.00;;;;;;;17.41;87.41;101627.25;5000125;28;20062;-71
2021/06/19 06:10:54;;;;;;;35.17;18.38;;;;;;;17.41;87.27;101619.16;4997341;28;20121;-70
2021/06/19 06:13:25;;;;;;;31.65;19.35;;;;;;;17.39;87.45;101620.19;4997845;28;20664;-69
2021/06/19 06:15:53;;;;;;;34.28;18.70;;;;;;;17.45;87.76;101626.16;4996345;28;20076;-71
2021/06/19 06:18:21;;;;;;;33.40;18.10;;;;;;;17.43;86.82;101624.47;5001248;28;20640;-73
2021/06/19 06:20:49;;;;;;;29.25;17.75;;;;;;;17.29;86.70;101631.41;4998182;28;20065;-72
2021/06/19 06:23:16;;;;;;;32.33;17.30;;;;;;;17.38;86.64;101638.16;4998081;28;20069;-71
2021/06/19 06:25:45;;;;;;;31.63;17.48;;;;;;;17.43;86.45;101637.97;5000175;28;20395;-72
2021/06/19 06:28:13;;;;;;;30.30;18.40;;;;;;;17.45;86.95;101645.03;4997721;28;20370;-73
2021/06/19 06:30:41;;;;;;;29.75;16.73;;;;;;;17.41;86.49;101650.66;4997082;28;20141;-72
2021/06/19 06:33:09;;;;;;;21.35;14.18;;;;;;;17.30;86.15;101646.66;4995929;28;20058;-73
2021/06/19 06:35:37;;;;;;;16.83;9.98;;;;;;;17.34;85.31;101653.63;5002240;28;20244;-72
2021/06/19 06:38:05;;;;;;;18.45;10.57;;;;;;;17.30;85.71;101643.09;4995301;28;20460;-71
2021/06/19 06:40:33;;;;;;;15.13;9.80;;;;;;;17.34;85.40;101644.66;5000413;28;21027;-70
2021/06/19 06:43:11;;;;;;;16.25;9.60;;;;;;;17.40;85.35;101655.19;4998682;28;20062;-71
2021/06/19 06:45:39;;;;;;;12.55;7.70;;;;;;;17.28;83.61;101644.94;5003175;28;20058;-72
2021/06/19 06:48:08;;;;;;;12.00;6.82;;;;;;;17.39;84.15;101645.31;4997112;28;20064;-71
2021/06/19 06:50:37;;;;;;;12.77;7.10;;;;;;;17.43;83.88;101644.22;4997968;28;20208;-71
2021/06/19 06:53:05;;;;;;;12.30;7.45;;;;;;;17.35;84.36;101644.59;4995960;28;20196;-72
2021/06/19 06:55:33;;;;;;;11.65;7.18;;;;;;;17.42;84.29;101652.38;4999100;28;20073;-71
2021/06/19 06:58:01;;;;;;;9.75;6.00;;;;;;;17.31;83.34;101651.06;4995281;28;20064;-70
2021/06/19 07:00:30;;;;;;;8.23;5.10;;;;;;;17.19;82.93;101646.25;4995382;28;20065;-71
2021/06/19 07:02:58;;;;;;;9.93;4.80;;;;;;;17.31;82.84;101656.47;5001275;28;20109;-69
2021/06/19 07:05:26;;;;;;;6.40;3.65;;;;;;;17.23;82.30;101647.00;4996109;28;20069;-69
2021/06/19 07:07:54;;;;;;;6.45;3.80;;;;;;;17.15;82.63;101656.31;4993841;28;20066;-69
2021/06/19 07:10:22;;;;;;;6.60;4.03;;;;;;;17.18;82.33;101649.94;4997999;28;20429;-71
2021/06/19 07:12:50;;;;;;;6.18;3.95;;;;;;;17.11;82.61;101643.03;4992810;28;20058;-70
2021/06/19 07:15:19;;;;;;;10.25;5.50;;;;;;;17.08;82.97;101657.56;5000241;28;20072;-74
2021/06/19 07:17:49;;;;;;;8.30;5.30;;;;;;;17.04;83.12;101652.38;4998067;28;20062;-69
2021/06/19 07:20:18;;;;;;;8.82;4.78;;;;;;;17.08;82.55;101654.00;4995851;28;20413;-69
2021/06/19 07:22:47;;;;;;;7.38;4.13;;;;;;;17.21;82.49;101659.69;4999062;28;20058;-69
2021/06/19 07:25:15;;;;;;;7.38;4.38;;;;;;;16.97;82.17;101657.19;4992355;28;20101;-68
2021/06/19 07:27:46;;;;;;;9.60;4.32;;;;;;;16.99;83.00;101668.75;4997271;28;20065;-68
2021/06/19 07:30:15;;;;;;;9.73;5.03;;;;;;;16.86;82.20;101676.53;4993654;28;20066;-68
2021/06/19 07:32:44;;;;;;;8.48;4.82;;;;;;;16.88;82.74;101688.13;5010963;28;20512;-69
2021/06/19 07:35:14;;;;;;;13.48;6.50;;;;;;;16.85;82.48;101690.09;4993489;28;20342;-68
2021/06/19 07:37:42;;;;;;;10.15;5.50;;;;;;;16.58;82.75;101704.69;4994712;28;20184;-70
2021/06/19 07:40:11;;;;;;;8.77;5.10;;;;;;;16.52;82.97;101701.38;4993373;28;20065;-69
2021/06/19 07:42:39;;;;;;;11.90;5.93;;;;;;;16.37;83.44;101697.53;4998799;28;20069;-68
2021/06/19 07:45:09;;;;;;;10.32;6.13;;;;;;;16.60;83.11;101701.91;4990607;28;20054;-69
2021/06/19 07:47:38;;;;;;;10.40;5.97;;;;;;;16.69;82.97;101708.72;4996007;28;20160;-67
2021/06/19 07:50:17;;;;;;;10.90;5.70;;;;;;;16.65;83.92;101704.41;4991498;28;20188;-68
2021/06/19 07:52:46;;;;;;;10.23;5.95;;;;;;;16.68;83.22;101710.53;4993930;28;20440;-67
2021/06/19 07:55:15;;;;;;;11.43;7.15;;;;;;;16.61;83.06;101709.91;4991662;28;20535;-67
2021/06/19 07:57:43;;;;;;;12.48;6.70;;;;;;;16.66;83.89;101711.56;4993709;28;20089;-67
2021/06/19 08:00:14;;;;;;;14.05;8.68;;;;;;;16.61;83.19;101720.69;4989962;28;20061;-70
2021/06/19 08:02:44;;;;;;;17.10;9.82;;;;;;;16.62;83.67;101726.97;4994970;28;20062;-68
2021/06/19 08:05:14;;;;;;;17.15;10.23;;;;;;;16.35;84.64;101724.53;4992367;28;20062;-67
2021/06/19 08:07:43;;;;;;;16.83;11.23;;;;;;;16.40;84.51;101721.63;4996621;28;20120;-70
2021/06/19 08:10:12;;;;;;;18.70;10.07;;;;;;;16.56;83.85;101738.00;4990704;28;20456;-68
2021/06/19 08:12:40;;;;;;;15.63;8.32;;;;;;;16.47;83.56;101744.69;4996870;28;20058;-68
2021/06/19 08:15:10;;;;;;;13.57;8.07;;;;;;;16.37;83.88;101740.63;4990284;28;20062;-67
2021/06/19 08:17:38;;;;;;;16.38;9.05;;;;;;;16.14;84.43;101745.16;4996992;28;20069;-67
2021/06/19 08:20:07;;;;;;;13.75;8.25;;;;;;;16.38;84.26;101745.06;5003427;28;20408;-68
2021/06/19 08:22:37;;;;;;;11.52;6.90;;;;;;;16.42;84.07;101744.00;4992838;28;20526;-67
2021/06/19 08:25:06;;;;;;;11.25;7.03;;;;;;;16.43;84.13;101754.69;4997886;28;20066;-68
2021/06/19 08:27:34;;;;;;;10.98;6.43;;;;;;;16.19;83.86;101753.91;4994551;28;20057;-68
2021/06/19 08:30:02;;;;;;;10.40;6.47;;;;;;;16.30;83.71;101756.16;4994691;28;20053;-69
2021/06/19 08:32:30;;;;;;;10.70;6.03;;;;;;;16.18;84.29;101765.63;4998575;28;20093;-70
2021/06/19 08:34:57;;;;;;;12.02;6.80;;;;;;;16.22;84.17;101766.34;4996391;28;20149;-71
2021/06/19 08:37:25;;;;;;;12.63;6.63;;;;;;;16.15;84.66;101749.56;4995025;28;20058;-69
2021/06/19 08:39:57;;;;;;;10.68;6.50;;;;;;;16.12;85.19;101746.13;5004038;28;20317;-70
2021/06/19 08:42:25;;;;;;;11.20;6.00;;;;;;;16.34;84.82;101738.03;4995083;28;20058;-69
2021/06/19 08:44:53;;;;;;;9.82;6.13;;;;;;;16.31;83.91;101738.16;5000885;28;20060;-69
2021/06/19 08:47:24;;;;;;;8.73;5.60;;;;;;;16.23;83.65;101731.28;4996702;28;20062;-69
2021/06/19 08:49:55;;;;;;;12.40;5.97;;;;;;;16.21;83.42;101737.69;4999774;28;20428;-68
2021/06/19 08:52:23;;;;;;;8.43;5.20;;;;;;;16.27;83.37;101731.16;5003029;28;20050;-70
2021/06/19 08:54:51;;;;;;;9.65;5.95;;;;;;;16.55;81.89;101731.75;5001461;28;20152;-71
2021/06/19 08:57:20;;;;;;;9.02;5.57;;;;;;;16.55;82.15;101730.84;5000794;28;20064;-69
2021/06/19 08:59:50;;;;;;;10.13;5.72;;;;;;;16.69;81.19;101739.25;4998274;28;20089;-69
2021/06/19 09:02:19;;;;;;;8.52;5.15;;;;;;;16.88;80.68;101736.63;4992162;28;20058;-69
2021/06/19 09:04:55;;;;;;;8.27;5.40;;;;;;;17.22;80.14;101718.06;4998571;28;20149;-69
2021/06/19 09:07:45;;;;;;;8.73;5.13;;;;;;;17.50;78.45;101721.25;4991382;28;20072;-70
2021/06/19 09:10:20;;;;;;;7.20;4.68;;;;;;;17.47;77.59;101723.19;4995835;28;20069;-70
2021/06/19 09:13:02;;;;;;;7.10;4.30;;;;;;;17.66;77.51;101724.06;4992187;28;20115;-69
2021/06/19 09:15:31;;;;;;;8.68;4.32;;;;;;;17.94;76.57;101720.06;4996857;28;20062;-68
2021/06/19 09:18:09;;;;;;;8.60;4.70;;;;;;;17.85;76.35;101728.59;4999788;28;20071;-69
2021/06/19 09:20:39;;;;;;;9.48;5.38;;;;;;;17.82;76.22;101720.63;4992799;28;20228;-69
2021/06/19 09:23:11;;;;;;;8.95;5.25;;;;;;;17.79;77.04;101728.88;4993128;28;20135;-68
2021/06/19 09:25:39;;;;;;;9.52;5.45;;;;;;;17.49;76.88;101732.09;4995031;28;20963;-69
2021/06/19 09:28:10;;;;;;;10.30;5.20;;;;;;;17.74;75.92;101731.78;4992536;28;20068;-69
2021/06/19 09:30:40;;;;;;;11.57;5.93;;;;;;;17.36;75.98;101732.66;4996867;28;20077;-71
2021/06/19 09:33:11;;;;;;;11.38;6.32;;;;;;;17.18;77.44;101726.31;4998523;28;20165;-70
2021/06/19 09:35:40;;;;;;;9.43;5.70;;;;;;;17.23;77.73;101727.91;5002754;28;20062;-71
2021/06/19 09:38:10;;;;;;;11.38;5.75;;;;;;;17.52;76.26;101724.72;5001834;28;20229;-70
2021/06/19 09:40:40;;;;;;;9.85;5.78;;;;;;;17.47;75.76;101724.06;4999671;28;20156;-70
2021/06/19 09:43:13;;;;;;;9.13;5.63;;;;;;;17.64;76.12;101723.28;5006129;28;20093;-70
2021/06/19 09:45:42;;;;;;;9.40;4.97;;;;;;;17.81;75.97;101733.25;4995654;28;20057;-70
2021/06/19 09:48:25;;;;;;;10.07;5.60;;;;;;;17.96;75.59;101731.66;5001166;28;20073;-69
2021/06/19 09:51:11;;;;;;;9.80;5.10;;;;;;;17.85;73.98;101739.38;5000210;28;20116;-70
2021/06/19 09:53:39;;;;;;;11.90;5.13;;;;;;;17.72;75.57;101741.78;4998402;28;20286;-70
2021/06/19 09:56:08;;;;;;;8.15;4.60;;;;;;;18.10;74.31;101744.50;5000242;28;20070;-69
2021/06/19 09:58:39;;;;;;;9.15;4.60;;;;;;;17.92;74.14;101749.84;5000732;28;20168;-69
2021/06/19 10:01:07;;;;;;;8.70;4.97;;;;;;;17.73;74.73;101749.81;4998193;28;20054;-69
2021/06/19 10:03:55;;;;;;;8.15;4.75;;;;;;;17.91;74.03;101760.69;5000709;28;20054;-69
2021/06/19 10:06:24;;;;;;;9.35;4.90;;;;;;;17.98;74.04;101754.06;4998315;28;20139;-71
2021/06/19 10:08:52;;;;;;;11.23;5.75;;;;;;;17.84;73.91;101748.41;5000403;28;20065;-69
2021/06/19 10:11:24;;;;;;;11.75;6.03;;;;;;;17.67;73.70;101758.22;4997755;28;20062;-69
2021/06/19 10:13:55;;;;;;;10.98;6.25;;;;;;;17.28;74.81;101758.22;5000620;28;20069;-69
2021/06/19 10:16:25;;;;;;;10.82;5.78;;;;;;;17.30;75.48;101742.88;4998385;28;20054;-70
2021/06/19 10:18:53;;;;;;;10.48;5.10;;;;;;;17.51;75.01;101738.28;5000258;28;20065;-70
2021/06/19 10:21:22;;;;;;;9.35;6.05;;;;;;;17.52;75.17;101740.91;4998783;28;20062;-69
2021/06/19 10:23:50;;;;;;;8.68;5.80;;;;;;;17.73;73.90;101744.41;5002278;28;20480;-67
2021/06/19 10:26:22;;;;;;;12.13;6.10;;;;;;;17.71;74.09;101729.25;4996839;28;20070;-71
2021/06/19 10:28:53;;;;;;;14.65;5.90;;;;;;;17.59;74.69;101743.31;5000263;28;20072;-69
2021/06/19 10:31:24;;;;;;;11.77;5.70;;;;;;;17.73;74.01;101735.44;4999852;28;20556;-68
2021/06/19 10:33:52;;;;;;;9.52;6.03;;;;;;;17.40;74.48;101744.19;5018416;28;20064;-69
2021/06/19 10:36:20;;;;;;;13.30;6.10;;;;;;;17.48;73.62;101742.00;4996382;28;20072;-71
2021/06/19 10:38:50;;;;;;;11.20;6.45;;;;;;;17.68;74.32;101740.19;4997838;28;20065;-69
2021/06/19 10:41:23;;;;;;;13.48;5.95;;;;;;;17.80;72.56;101738.72;4995403;28;20065;-68
2021/06/19 10:43:52;;;;;;;9.70;5.57;;;;;;;17.77;72.75;101730.78;4999503;28;20085;-69
2021/06/19 10:46:35;;;;;;;9.80;5.47;;;;;;;17.80;71.95;101741.44;4995972;28;20072;-71
2021/06/19 10:49:41;;;;;;;11.48;5.97;;;;;;;18.03;73.82;101748.44;5000516;28;20318;-69
2021/06/19 10:52:32;;;;;;;8.80;4.57;;;;;;;18.55;71.54;101758.47;4996322;28;20520;-69
2021/06/19 10:55:20;;;;;;;9.93;5.13;;;;;;;18.11;71.92;101757.91;4997967;28;20054;-69
2021/06/19 10:57:49;;;;;;;8.55;5.13;;;;;;;18.17;70.84;101745.94;4994084;28;20069;-69
2021/06/19 11:00:43;;;;;;;9.05;4.95;;;;;;;18.02;71.45;101738.59;4998183;28;20061;-69
2021/06/19 11:03:13;;;;;;;11.23;6.82;;;;;;;17.82;71.82;101742.22;4994665;28;20068;-68
2021/06/19 11:05:52;;;;;;;10.75;5.63;;;;;;;18.00;72.03;101737.81;5000212;28;20089;-68
2021/06/19 11:08:21;;;;;;;10.80;5.82;;;;;;;18.38;71.35;101735.88;4994941;28;20061;-68
2021/06/19 11:11:00;;;;;;;11.18;6.25;;;;;;;18.51;70.82;101727.13;4997478;28;20360;-68
2021/06/19 11:13:49;;;;;;;12.57;7.25;;;;;;;18.51;70.06;101729.84;4994884;28;20272;-69
2021/06/19 11:16:54;;;;;;;10.35;6.05;;;;;;;18.67;69.80;101728.97;4996978;28;20384;-69
2021/06/19 11:19:46;;;;;;;12.82;7.03;;;;;;;18.68;69.90;101721.75;4995208;28;20068;-73
2021/06/19 11:22:42;;;;;;;9.30;6.10;;;;;;;18.54;69.84;101719.78;4994423;28;20061;-69
2021/06/19 11:25:53;;;;;;;12.10;7.07;;;;;;;18.68;69.27;101716.34;5000710;28;20050;-69
2021/06/19 11:28:30;;;;;;;13.43;7.75;;;;;;;18.62;69.94;101722.91;4993791;28;20311;-70